Terminal Aerodrome Forecast
Issued by NWS Memphis, TN

Home | Current Version | Previous Version | Text Only | Print | Product List | Glossary On
Versions: 1 2 3 4 5 6 7 8 9 10 11 12 13 14 15 16
000
FTUS44 KMEG 221737
TAFMKL
TAF
KMKL 221737Z 2218/2318 18009KT P6SM BKN012 OVC025
     FM222100 16010G15KT 5SM BR VCSH OVC010
     FM230200 17009KT 5SM BR VCSH OVC008
     FM230600 19008KT 4SM BR VCSH OVC007
     FM231300 24005KT 5SM BR OVC008=

USA.gov is the U.S. government's official web portal to all federal, state and local government web resources and services.